Time;durP1;ratioP1;P1;durP2;ratioP2;P2;SDS_P1;SDS_P2;PMS_P1;PMS_P2;Temp;Humidity;BMP_temperature;BMP_pressure;BME280_temperature;BME280_humidity;BME280_pressure;Samples;Min_cycle;Max_cycle;Signal;HPM_P1;HPM_P2
2022/12/29 00:02:08;;;;;;;6.80;5.00;;;;;;;;;;5054040;28;20072;-76
2022/12/29 00:04:34;;;;;;;5.45;4.53;;;;;;;;;;5049596;28;20109;-76
2022/12/29 00:07:01;;;;;;;7.55;4.90;;;;;;;;;;5057687;28;20420;-76
2022/12/29 00:09:27;;;;;;;9.32;4.13;;;;;;;;;;5059172;28;20040;-76
2022/12/29 00:11:53;;;;;;;4.82;3.67;;;;;;;;;;5056959;28;20041;-76
2022/12/29 00:17:04;;;;;;;7.57;3.33;;;;;;;;;;5065266;28;20098;-76
2022/12/29 00:35:46;;;;;;;6.18;3.30;;;;;;;;;;5055975;28;20044;-76
2022/12/29 00:46:27;;;;;;;5.50;2.85;;;;;;;;;;5058577;28;20053;-76
2022/12/29 00:51:37;;;;;;;7.88;2.80;;;;;;;;;;5055983;28;20040;-76
2022/12/29 00:54:03;;;;;;;3.63;2.55;;;;;;;;;;5055128;28;20055;-75
2022/12/29 00:56:30;;;;;;;7.88;3.03;;;;;;;;;;5064316;28;20036;-76
2022/12/29 00:58:56;;;;;;;8.77;3.40;;;;;;;;;;5055612;28;20048;-76
2022/12/29 01:01:22;;;;;;;5.43;3.10;;;;;;;;;;5062463;28;20048;-76
2022/12/29 01:03:48;;;;;;;3.83;2.70;;;;;;;;;;5052435;28;20500;-76
2022/12/29 01:06:16;;;;;;;4.32;2.90;;;;;;;;;;5047902;28;20403;-75
2022/12/29 01:08:42;;;;;;;5.70;3.10;;;;;;;;;;5048027;28;20110;-76
2022/12/29 01:11:12;;;;;;;4.30;3.47;;;;;;;;;;5055192;28;20075;-76
2022/12/29 01:13:40;;;;;;;7.70;4.28;;;;;;;;;;5054209;28;20102;-76
2022/12/29 01:16:07;;;;;;;8.50;5.13;;;;;;;;;;5053554;28;20487;-76
2022/12/29 01:18:33;;;;;;;6.35;5.47;;;;;;;;;;5059021;28;20048;-75
2022/12/29 01:21:03;;;;;;;6.75;5.85;;;;;;;;;;5052284;28;20037;-76
2022/12/29 01:23:29;;;;;;;5.65;5.05;;;;;;;;;;5050387;28;20059;-76
2022/12/29 01:25:55;;;;;;;7.93;5.65;;;;;;;;;;5050608;28;20178;-76
2022/12/29 01:28:21;;;;;;;8.77;6.40;;;;;;;;;;5050808;28;20052;-76
2022/12/29 01:30:47;;;;;;;7.50;5.85;;;;;;;;;;5048689;28;20157;-75
2022/12/29 01:33:14;;;;;;;7.80;5.93;;;;;;;;;;5050340;28;20048;-75
2022/12/29 01:35:40;;;;;;;11.05;5.88;;;;;;;;;;5050097;28;20070;-76
2022/12/29 01:38:07;;;;;;;10.00;6.10;;;;;;;;;;5048354;28;20056;-77
2022/12/29 01:40:33;;;;;;;7.70;5.90;;;;;;;;;;5051692;28;20059;-75
2022/12/29 01:42:59;;;;;;;8.90;5.50;;;;;;;;;;5052016;28;20041;-74
2022/12/29 01:45:25;;;;;;;7.32;6.10;;;;;;;;;;5051317;28;20052;-75
2022/12/29 01:47:58;;;;;;;7.47;5.80;;;;;;;;;;5057962;28;20071;-75
2022/12/29 01:50:34;;;;;;;6.30;5.47;;;;;;;;;;5059931;28;20082;-75
2022/12/29 01:53:03;;;;;;;7.80;5.53;;;;;;;;;;5051385;28;20072;-75
2022/12/29 01:55:30;;;;;;;7.63;5.68;;;;;;;;;;5059033;28;20346;-75
2022/12/29 01:57:58;;;;;;;8.35;6.05;;;;;;;;;;5060087;28;20146;-75
2022/12/29 02:00:24;;;;;;;8.05;5.50;;;;;;;;;;5057483;28;20055;-77
2022/12/29 02:02:54;;;;;;;7.15;6.32;;;;;;;;;;5058276;28;20381;-75
2022/12/29 02:05:24;;;;;;;6.03;5.32;;;;;;;;;;5062718;28;20098;-75
2022/12/29 02:07:51;;;;;;;7.40;5.88;;;;;;;;;;5064304;28;20045;-75
2022/12/29 02:10:18;;;;;;;5.72;5.13;;;;;;;;;;5065344;28;20526;-75
2022/12/29 02:12:45;;;;;;;6.97;4.38;;;;;;;;;;5060779;28;20064;-75
2022/12/29 02:15:12;;;;;;;5.75;4.40;;;;;;;;;;5058602;28;20177;-75
2022/12/29 02:17:47;;;;;;;7.10;3.78;;;;;;;;;;5070988;28;20044;-75
2022/12/29 02:20:40;;;;;;;10.43;3.63;;;;;;;;;;5065121;28;20401;-75
2022/12/29 02:23:12;;;;;;;10.67;3.00;;;;;;;;;;5060862;28;20048;-75
2022/12/29 02:25:44;;;;;;;12.00;3.05;;;;;;;;;;5063443;28;20036;-75
2022/12/29 02:28:34;;;;;;;5.22;2.03;;;;;;;;;;5061195;28;20040;-75
2022/12/29 02:31:18;;;;;;;4.70;2.08;;;;;;;;;;5059230;28;20048;-75
2022/12/29 02:34:01;;;;;;;4.55;1.60;;;;;;;;;;5058798;28;20109;-75
2022/12/29 02:36:36;;;;;;;6.18;1.80;;;;;;;;;;5060235;28;20447;-75
2022/12/29 02:39:20;;;;;;;3.40;2.13;;;;;;;;;;5056323;28;20113;-75
2022/12/29 02:41:57;;;;;;;4.55;1.60;;;;;;;;;;5059351;28;20048;-75
2022/12/29 02:44:40;;;;;;;2.83;1.42;;;;;;;;;;5056782;28;20067;-75
2022/12/29 02:47:18;;;;;;;3.60;1.50;;;;;;;;;;5065529;28;20037;-75
2022/12/29 02:49:44;;;;;;;5.32;1.55;;;;;;;;;;5063005;28;20522;-75
2022/12/29 02:52:15;;;;;;;4.93;1.60;;;;;;;;;;5053944;28;20052;-75
2022/12/29 02:54:41;;;;;;;5.55;1.70;;;;;;;;;;5056455;28;20049;-75
2022/12/29 02:57:13;;;;;;;6.20;2.28;;;;;;;;;;5056629;28;20051;-75
2022/12/29 02:59:39;;;;;;;5.32;2.10;;;;;;;;;;5058642;28;20123;-75
2022/12/29 03:02:24;;;;;;;4.10;2.08;;;;;;;;;;5055812;28;20110;-75
2022/12/29 03:04:50;;;;;;;8.00;2.45;;;;;;;;;;5057023;28;20047;-75
2022/12/29 03:07:35;;;;;;;8.50;2.60;;;;;;;;;;5055781;28;20044;-75
2022/12/29 03:10:13;;;;;;;11.00;2.70;;;;;;;;;;5057849;28;20392;-75
2022/12/29 03:16:05;;;;;;;9.65;2.75;;;;;;;;;;5068135;28;20044;-75
2022/12/29 03:18:34;;;;;;;14.25;3.55;;;;;;;;;;5067455;28;20131;-75
2022/12/29 03:21:10;;;;;;;15.15;3.55;;;;;;;;;;5066907;28;20044;-75
2022/12/29 03:23:37;;;;;;;14.27;3.58;;;;;;;;;;5060352;28;20085;-75
2022/12/29 03:26:07;;;;;;;14.27;3.80;;;;;;;;;;5068861;28;20096;-75
2022/12/29 03:28:41;;;;;;;13.07;3.33;;;;;;;;;;5068195;28;20044;-76
2022/12/29 03:31:08;;;;;;;11.65;3.20;;;;;;;;;;5067991;28;20055;-76
2022/12/29 03:33:36;;;;;;;14.32;3.55;;;;;;;;;;5060219;28;20028;-76
2022/12/29 03:36:04;;;;;;;11.32;3.10;;;;;;;;;;5065451;28;20420;-76
2022/12/29 03:38:41;;;;;;;14.25;3.90;;;;;;;;;;5058898;28;20500;-76
2022/12/29 03:41:10;;;;;;;11.77;2.90;;;;;;;;;;5058367;28;20064;-76
2022/12/29 03:43:36;;;;;;;14.73;3.17;;;;;;;;;;5057967;28;20041;-75
2022/12/29 03:46:02;;;;;;;12.57;3.35;;;;;;;;;;5062802;28;20577;-75
2022/12/29 03:48:28;;;;;;;15.27;3.67;;;;;;;;;;5059605;28;20373;-75
2022/12/29 03:50:57;;;;;;;11.68;2.83;;;;;;;;;;5062757;28;20490;-75
2022/12/29 03:53:23;;;;;;;12.93;3.60;;;;;;;;;;5063569;28;20045;-75
2022/12/29 03:55:49;;;;;;;14.25;3.60;;;;;;;;;;5060735;28;20383;-75
2022/12/29 03:58:15;;;;;;;12.93;3.17;;;;;;;;;;5065060;28;20106;-75
2022/12/29 04:00:41;;;;;;;8.45;2.78;;;;;;;;;;5059647;28;20479;-75
2022/12/29 04:03:07;;;;;;;17.00;3.20;;;;;;;;;;5063558;28;20044;-75
2022/12/29 04:05:33;;;;;;;13.10;3.08;;;;;;;;;;5060499;28;20048;-75
2022/12/29 04:07:59;;;;;;;13.25;3.65;;;;;;;;;;5062059;28;20052;-75
2022/12/29 04:10:25;;;;;;;11.93;3.10;;;;;;;;;;5060664;28;20063;-75
2022/12/29 04:12:51;;;;;;;16.52;4.63;;;;;;;;;;5062769;28;20507;-75
2022/12/29 04:15:17;;;;;;;15.18;3.83;;;;;;;;;;5058140;28;20048;-74
2022/12/29 04:17:43;;;;;;;16.40;4.68;;;;;;;;;;5066459;28;20090;-75
2022/12/29 04:22:58;;;;;;;17.88;3.88;;;;;;;;;;5067141;28;20127;-75
2022/12/29 04:25:24;;;;;;;16.98;4.25;;;;;;;;;;5064409;28;20163;-75
2022/12/29 04:27:50;;;;;;;21.08;4.53;;;;;;;;;;5069694;28;20494;-75
2022/12/29 04:30:16;;;;;;;21.17;4.97;;;;;;;;;;5065550;28;20040;-75
2022/12/29 04:32:42;;;;;;;24.60;5.57;;;;;;;;;;5068828;28;20074;-75
2022/12/29 04:35:09;;;;;;;24.08;5.32;;;;;;;;;;5062160;28;20072;-75
2022/12/29 04:37:35;;;;;;;30.27;5.63;;;;;;;;;;5052939;28;20059;-75
2022/12/29 04:40:01;;;;;;;22.67;4.57;;;;;;;;;;5048115;28;20048;-75
2022/12/29 04:42:27;;;;;;;23.35;4.63;;;;;;;;;;5053147;28;20060;-75
2022/12/29 04:44:53;;;;;;;29.13;5.22;;;;;;;;;;5050455;28;20400;-75
2022/12/29 04:47:19;;;;;;;21.05;3.85;;;;;;;;;;5061092;28;20048;-75
2022/12/29 04:49:45;;;;;;;19.73;4.32;;;;;;;;;;5064086;28;20041;-75
2022/12/29 04:52:11;;;;;;;20.05;4.47;;;;;;;;;;5059543;28;20048;-75
2022/12/29 04:54:37;;;;;;;21.88;5.32;;;;;;;;;;5064395;28;20044;-75
2022/12/29 04:57:03;;;;;;;21.20;4.53;;;;;;;;;;5061392;28;20386;-76
2022/12/29 04:59:29;;;;;;;22.90;5.20;;;;;;;;;;5063112;28;20036;-75
2022/12/29 05:01:55;;;;;;;26.23;5.07;;;;;;;;;;5063078;28;20564;-75
2022/12/29 05:04:23;;;;;;;22.77;4.88;;;;;;;;;;5052634;28;20480;-75
2022/12/29 05:06:49;;;;;;;22.23;5.00;;;;;;;;;;5056302;28;20090;-75
2022/12/29 05:09:15;;;;;;;25.95;4.68;;;;;;;;;;5059520;28;20503;-75
2022/12/29 05:11:42;;;;;;;18.60;4.40;;;;;;;;;;5056512;28;20044;-75
2022/12/29 05:14:08;;;;;;;24.02;4.38;;;;;;;;;;5055316;28;20053;-75
2022/12/29 05:16:34;;;;;;;16.10;3.70;;;;;;;;;;5058805;28;20095;-75
2022/12/29 05:19:00;;;;;;;24.95;4.13;;;;;;;;;;5059130;28;20088;-75
2022/12/29 05:21:26;;;;;;;25.23;4.50;;;;;;;;;;5053682;28;20054;-75
2022/12/29 05:23:52;;;;;;;19.55;4.43;;;;;;;;;;5053482;28;20070;-75
2022/12/29 05:26:18;;;;;;;19.73;4.68;;;;;;;;;;5052313;28;20136;-75
2022/12/29 05:28:44;;;;;;;21.45;4.53;;;;;;;;;;5054365;28;20440;-75
2022/12/29 05:31:10;;;;;;;16.27;4.10;;;;;;;;;;5056798;28;20090;-75
2022/12/29 05:33:42;;;;;;;17.75;3.90;;;;;;;;;;5057632;28;20056;-75
2022/12/29 05:36:09;;;;;;;18.88;4.15;;;;;;;;;;5056335;28;20511;-75
2022/12/29 05:38:35;;;;;;;17.30;4.10;;;;;;;;;;5057509;28;20214;-75
2022/12/29 05:41:01;;;;;;;17.50;4.18;;;;;;;;;;5058698;28;20088;-75
2022/12/29 05:43:27;;;;;;;17.15;3.80;;;;;;;;;;5058343;28;20102;-75
2022/12/29 05:45:54;;;;;;;22.48;4.35;;;;;;;;;;5060361;28;20052;-75
2022/12/29 05:48:20;;;;;;;16.10;4.43;;;;;;;;;;5061829;28;20048;-75
2022/12/29 05:50:52;;;;;;;21.00;4.78;;;;;;;;;;5063019;28;20045;-75
2022/12/29 05:53:19;;;;;;;19.55;4.43;;;;;;;;;;5056753;28;20091;-76
2022/12/29 05:55:46;;;;;;;19.48;4.57;;;;;;;;;;5057759;28;20040;-75
2022/12/29 05:58:13;;;;;;;21.15;5.03;;;;;;;;;;5063568;28;20064;-75
2022/12/29 06:00:39;;;;;;;17.98;4.93;;;;;;;;;;5056331;28;20098;-75
2022/12/29 06:03:05;;;;;;;17.73;4.97;;;;;;;;;;5057997;28;20040;-75
2022/12/29 06:05:31;;;;;;;17.00;4.72;;;;;;;;;;5057073;28;20052;-75
2022/12/29 06:07:57;;;;;;;20.95;5.10;;;;;;;;;;5055962;28;20050;-76
2022/12/29 06:10:23;;;;;;;25.27;5.32;;;;;;;;;;5056536;28;20577;-75
2022/12/29 06:12:49;;;;;;;21.08;4.43;;;;;;;;;;5057541;28;20070;-75
2022/12/29 06:15:15;;;;;;;18.58;4.35;;;;;;;;;;5055475;28;20040;-75
2022/12/29 06:17:44;;;;;;;22.83;4.93;;;;;;;;;;5069712;28;20055;-75
2022/12/29 06:20:10;;;;;;;20.23;5.05;;;;;;;;;;5064771;28;20134;-75
2022/12/29 06:22:37;;;;;;;27.05;4.72;;;;;;;;;;5058536;28;20128;-75
2022/12/29 06:25:03;;;;;;;22.58;4.53;;;;;;;;;;5059953;28;20131;-75
2022/12/29 06:27:29;;;;;;;21.77;5.10;;;;;;;;;;5061841;28;20051;-75
2022/12/29 06:29:55;;;;;;;20.35;4.65;;;;;;;;;;5059756;28;20064;-75
2022/12/29 06:32:21;;;;;;;26.30;5.90;;;;;;;;;;5061925;28;21679;-75
2022/12/29 06:34:47;;;;;;;19.00;4.70;;;;;;;;;;5061490;28;20033;-75
2022/12/29 06:37:14;;;;;;;22.38;4.65;;;;;;;;;;5063834;28;20061;-75
2022/12/29 06:39:42;;;;;;;20.00;4.70;;;;;;;;;;5054238;28;20098;-75
2022/12/29 06:42:09;;;;;;;16.75;4.45;;;;;;;;;;5051700;28;22229;-75
2022/12/29 06:44:35;;;;;;;29.92;5.90;;;;;;;;;;5053068;28;20046;-75
2022/12/29 06:47:01;;;;;;;24.17;5.75;;;;;;;;;;5058270;28;20041;-75
2022/12/29 06:49:27;;;;;;;31.33;6.07;;;;;;;;;;5056154;28;20037;-75
2022/12/29 06:51:58;;;;;;;23.30;5.22;;;;;;;;;;5056388;28;20102;-75
2022/12/29 06:54:24;;;;;;;22.48;4.43;;;;;;;;;;5055516;28;20036;-75
2022/12/29 06:56:50;;;;;;;19.92;4.68;;;;;;;;;;5059992;28;20462;-75
2022/12/29 06:59:16;;;;;;;16.35;4.15;;;;;;;;;;5055870;28;20112;-75
2022/12/29 07:01:42;;;;;;;17.63;4.82;;;;;;;;;;5053040;28;20519;-75
2022/12/29 07:04:08;;;;;;;21.98;5.50;;;;;;;;;;5054783;28;20041;-75
2022/12/29 07:06:34;;;;;;;19.48;5.40;;;;;;;;;;5057820;28;20041;-75
2022/12/29 07:09:00;;;;;;;22.40;5.25;;;;;;;;;;5057089;28;20056;-75
2022/12/29 07:11:26;;;;;;;22.45;5.28;;;;;;;;;;5050754;28;20051;-77
2022/12/29 07:13:52;;;;;;;25.45;5.22;;;;;;;;;;5060938;28;20036;-76
2022/12/29 07:16:18;;;;;;;21.15;5.25;;;;;;;;;;5058629;28;20055;-75
2022/12/29 07:18:44;;;;;;;20.45;4.63;;;;;;;;;;5056658;28;20489;-75
2022/12/29 07:21:11;;;;;;;31.50;5.57;;;;;;;;;;5060433;28;20133;-76
2022/12/29 07:23:37;;;;;;;17.02;4.82;;;;;;;;;;5062705;28;20132;-76
2022/12/29 07:26:05;;;;;;;30.40;6.53;;;;;;;;;;5063974;28;20041;-76
2022/12/29 07:28:32;;;;;;;23.17;5.05;;;;;;;;;;5064261;28;20099;-76
2022/12/29 07:30:58;;;;;;;22.35;5.53;;;;;;;;;;5063669;28;20492;-76
2022/12/29 07:33:28;;;;;;;19.67;4.63;;;;;;;;;;5068065;28;20098;-76
2022/12/29 07:35:54;;;;;;;22.98;5.43;;;;;;;;;;5054614;28;20048;-76
2022/12/29 07:38:20;;;;;;;22.13;5.75;;;;;;;;;;5064029;28;20688;-77
2022/12/29 07:40:46;;;;;;;17.13;4.45;;;;;;;;;;5064069;28;20062;-76
2022/12/29 07:43:12;;;;;;;17.85;4.95;;;;;;;;;;5068700;28;20060;-74
2022/12/29 07:45:38;;;;;;;23.02;4.75;;;;;;;;;;5061765;28;20045;-77
2022/12/29 07:48:07;;;;;;;17.95;4.40;;;;;;;;;;5060704;28;20048;-77
2022/12/29 07:50:33;;;;;;;21.38;4.68;;;;;;;;;;5065615;28;20488;-77
2022/12/29 07:53:00;;;;;;;23.27;5.30;;;;;;;;;;5066725;28;20048;-77
2022/12/29 07:55:26;;;;;;;21.40;4.20;;;;;;;;;;5067774;28;20056;-78
2022/12/29 07:57:55;;;;;;;26.77;4.78;;;;;;;;;;5067233;28;20050;-77
2022/12/29 08:00:22;;;;;;;19.90;4.13;;;;;;;;;;5066763;28;20588;-77
2022/12/29 08:02:49;;;;;;;24.63;4.55;;;;;;;;;;5066120;28;20483;-77
2022/12/29 08:05:15;;;;;;;21.50;5.07;;;;;;;;;;5067341;28;20492;-77
2022/12/29 08:07:43;;;;;;;22.08;4.50;;;;;;;;;;5065222;28;20093;-77
2022/12/29 08:10:09;;;;;;;27.95;5.68;;;;;;;;;;5062145;28;20068;-77
2022/12/29 08:12:35;;;;;;;27.42;5.38;;;;;;;;;;5058261;28;20037;-78
2022/12/29 08:15:01;;;;;;;25.35;5.53;;;;;;;;;;5065008;28;20052;-77
2022/12/29 08:17:27;;;;;;;33.63;5.82;;;;;;;;;;5067556;28;20051;-77
2022/12/29 08:19:53;;;;;;;21.58;5.40;;;;;;;;;;5066535;28;20447;-76
2022/12/29 08:22:19;;;;;;;31.15;5.57;;;;;;;;;;5051029;28;20112;-77
2022/12/29 08:24:46;;;;;;;31.25;6.03;;;;;;;;;;5069441;28;20480;-78
2022/12/29 08:27:12;;;;;;;39.15;7.68;;;;;;;;;;5069314;28;20823;-77
2022/12/29 08:29:38;;;;;;;34.78;6.03;;;;;;;;;;5069207;28;20043;-77
2022/12/29 08:32:04;;;;;;;35.40;6.80;;;;;;;;;;5058509;28;20140;-78
2022/12/29 08:34:31;;;;;;;22.50;4.10;;;;;;;;;;5065855;28;20053;-77
2022/12/29 08:36:57;;;;;;;29.98;6.32;;;;;;;;;;5068527;28;20036;-81
2022/12/29 08:39:23;;;;;;;29.02;6.55;;;;;;;;;;5054557;28;20048;-77
2022/12/29 08:41:50;;;;;;;28.55;6.47;;;;;;;;;;5062056;28;20044;-76
2022/12/29 08:44:16;;;;;;;30.20;5.47;;;;;;;;;;5059050;28;20084;-77
2022/12/29 08:46:42;;;;;;;26.58;5.22;;;;;;;;;;5068285;28;20054;-76
2022/12/29 08:49:08;;;;;;;29.40;7.30;;;;;;;;;;5074194;28;20048;-76
2022/12/29 08:51:34;;;;;;;25.60;5.63;;;;;;;;;;5068574;28;20060;-77
2022/12/29 08:54:00;;;;;;;27.15;6.28;;;;;;;;;;5052560;28;20060;-76
2022/12/29 08:56:26;;;;;;;25.33;6.40;;;;;;;;;;5049936;28;20439;-76
2022/12/29 08:58:53;;;;;;;33.75;6.40;;;;;;;;;;5056399;28;20037;-76
2022/12/29 09:01:19;;;;;;;33.67;8.07;;;;;;;;;;5060919;28;20066;-76
2022/12/29 09:03:46;;;;;;;27.42;6.15;;;;;;;;;;5065271;28;20080;-77
2022/12/29 09:06:12;;;;;;;29.45;6.35;;;;;;;;;;5078180;28;20044;-76
2022/12/29 09:08:38;;;;;;;34.80;6.38;;;;;;;;;;5072306;28;20513;-77
2022/12/29 09:11:12;;;;;;;33.97;7.88;;;;;;;;;;5068423;28;20049;-76
2022/12/29 09:13:38;;;;;;;36.88;6.50;;;;;;;;;;5067678;28;20170;-75
2022/12/29 09:16:04;;;;;;;32.92;6.88;;;;;;;;;;5076786;28;20119;-75
2022/12/29 09:18:31;;;;;;;27.95;6.88;;;;;;;;;;5075355;28;20040;-77
2022/12/29 09:20:58;;;;;;;30.30;6.22;;;;;;;;;;5074767;28;20048;-76
2022/12/29 09:23:24;;;;;;;34.22;8.20;;;;;;;;;;5072286;28;20497;-76
2022/12/29 09:25:50;;;;;;;32.53;7.07;;;;;;;;;;5073247;28;20384;-76
2022/12/29 09:28:16;;;;;;;33.63;6.22;;;;;;;;;;5067352;28;20082;-76
2022/12/29 09:30:45;;;;;;;26.13;6.05;;;;;;;;;;5070187;28;20129;-76
2022/12/29 09:33:11;;;;;;;38.60;6.88;;;;;;;;;;5071695;28;20044;-78
2022/12/29 09:35:37;;;;;;;30.15;6.93;;;;;;;;;;5071471;28;20111;-78
2022/12/29 09:38:03;;;;;;;24.25;5.75;;;;;;;;;;5070619;28;20448;-77
2022/12/29 09:40:31;;;;;;;30.45;6.75;;;;;;;;;;5069093;28;20048;-77
2022/12/29 09:43:06;;;;;;;33.00;7.45;;;;;;;;;;5070383;28;20500;-77
2022/12/29 09:45:42;;;;;;;31.70;7.47;;;;;;;;;;5069181;28;20389;-78
2022/12/29 09:48:14;;;;;;;36.88;7.30;;;;;;;;;;5073240;28;20052;-78
2022/12/29 09:50:40;;;;;;;26.17;6.95;;;;;;;;;;5064403;28;20052;-78
2022/12/29 09:53:30;;;;;;;36.40;7.38;;;;;;;;;;5070644;28;20079;-78
2022/12/29 09:55:58;;;;;;;30.08;7.18;;;;;;;;;;5062811;28;20132;-78
2022/12/29 09:58:30;;;;;;;32.88;7.55;;;;;;;;;;5072550;28;20045;-78
2022/12/29 10:00:59;;;;;;;39.30;7.65;;;;;;;;;;5066255;28;20045;-78
2022/12/29 10:03:34;;;;;;;41.15;9.40;;;;;;;;;;5073261;28;20144;-79
2022/12/29 10:06:06;;;;;;;40.90;9.20;;;;;;;;;;5067945;28;20045;-76
2022/12/29 10:08:40;;;;;;;28.98;7.35;;;;;;;;;;5070718;28;20047;-78
2022/12/29 10:11:15;;;;;;;29.40;7.25;;;;;;;;;;5070971;28;20494;-79
2022/12/29 10:14:00;;;;;;;32.28;6.78;;;;;;;;;;5072069;28;20075;-79
2022/12/29 10:16:26;;;;;;;30.10;5.97;;;;;;;;;;5068307;28;20057;-81
2022/12/29 10:19:10;;;;;;;28.75;6.35;;;;;;;;;;5067882;28;20044;-81
2022/12/29 10:21:39;;;;;;;26.70;6.50;;;;;;;;;;5068914;28;20033;-82
2022/12/29 10:24:08;;;;;;;26.92;5.88;;;;;;;;;;5065882;28;20484;-82
2022/12/29 10:26:38;;;;;;;33.28;5.55;;;;;;;;;;5070074;28;20044;-81
2022/12/29 10:29:06;;;;;;;24.33;4.60;;;;;;;;;;5069317;28;20045;-82
2022/12/29 10:31:35;;;;;;;19.27;4.88;;;;;;;;;;5064826;28;20156;-81
2022/12/29 10:34:04;;;;;;;24.70;5.82;;;;;;;;;;5062279;28;20045;-87
2022/12/29 10:36:39;;;;;;;19.45;5.25;;;;;;;;;;5062077;28;20056;-80
2022/12/29 10:39:07;;;;;;;25.60;5.20;;;;;;;;;;5064547;28;20056;-80
2022/12/29 10:41:33;;;;;;;23.38;5.57;;;;;;;;;;5063898;28;20539;-81
2022/12/29 10:44:00;;;;;;;19.55;5.20;;;;;;;;;;5064103;28;20088;-80
2022/12/29 10:46:31;;;;;;;21.15;4.68;;;;;;;;;;5063398;28;20186;-80
2022/12/29 10:49:01;;;;;;;19.77;4.38;;;;;;;;;;5067981;28;20044;-80
2022/12/29 10:51:37;;;;;;;19.55;4.85;;;;;;;;;;5069589;28;20040;-79
2022/12/29 10:54:12;;;;;;;23.48;4.75;;;;;;;;;;5070768;28;20506;-79
2022/12/29 10:56:41;;;;;;;22.70;6.90;;;;;;;;;;5067615;28;20124;-82
2022/12/29 10:59:22;;;;;;;16.20;4.15;;;;;;;;;;5069531;28;20055;-83
2022/12/29 11:02:16;;;;;;;18.90;4.35;;;;;;;;;;5068466;28;20039;-83
2022/12/29 11:04:42;;;;;;;16.45;3.72;;;;;;;;;;5063205;28;20110;-82
2022/12/29 11:07:08;;;;;;;15.05;3.72;;;;;;;;;;5067710;28;20053;-81
2022/12/29 11:09:35;;;;;;;12.80;3.92;;;;;;;;;;5069563;28;20048;-81
2022/12/29 11:12:01;;;;;;;18.85;3.58;;;;;;;;;;5070803;28;20048;-82
2022/12/29 11:14:31;;;;;;;15.57;4.03;;;;;;;;;;5073100;28;20128;-86
2022/12/29 11:16:58;;;;;;;15.32;3.97;;;;;;;;;;5080011;28;20040;-87
2022/12/29 11:19:26;;;;;;;14.75;3.42;;;;;;;;;;5071835;28;20547;-82
2022/12/29 11:21:52;;;;;;;9.95;3.03;;;;;;;;;;5064412;28;20435;-84
2022/12/29 11:24:26;;;;;;;12.77;2.92;;;;;;;;;;5062122;28;20092;-87
2022/12/29 11:26:57;;;;;;;13.52;3.78;;;;;;;;;;5065298;28;20098;-83
2022/12/29 11:29:24;;;;;;;11.98;3.65;;;;;;;;;;5066756;28;20041;-80
2022/12/29 11:31:52;;;;;;;14.38;3.30;;;;;;;;;;5064859;28;20480;-80
2022/12/29 11:34:20;;;;;;;12.73;3.38;;;;;;;;;;5068459;28;20037;-78
2022/12/29 11:36:47;;;;;;;10.98;2.83;;;;;;;;;;5064791;28;20507;-76
2022/12/29 11:39:25;;;;;;;12.65;3.28;;;;;;;;;;5059735;28;20049;-76
2022/12/29 11:41:53;;;;;;;11.00;3.30;;;;;;;;;;5065482;28;20048;-80
2022/12/29 11:44:19;;;;;;;13.48;3.80;;;;;;;;;;5063632;28;20515;-78
2022/12/29 11:46:46;;;;;;;14.73;3.63;;;;;;;;;;5065964;28;20101;-79
2022/12/29 11:49:14;;;;;;;12.63;3.33;;;;;;;;;;5060253;28;20392;-79
2022/12/29 11:51:44;;;;;;;14.73;3.75;;;;;;;;;;5065472;28;20074;-79
2022/12/29 11:54:15;;;;;;;15.20;4.20;;;;;;;;;;5066673;28;20040;-79
2022/12/29 11:56:42;;;;;;;16.05;3.63;;;;;;;;;;5066976;28;20045;-79
2022/12/29 11:59:29;;;;;;;14.13;3.88;;;;;;;;;;5059699;28;20085;-79
2022/12/29 12:01:56;;;;;;;11.00;3.33;;;;;;;;;;5064445;28;20484;-79
2022/12/29 12:04:25;;;;;;;19.10;3.40;;;;;;;;;;5062795;28;20052;-80
2022/12/29 12:07:12;;;;;;;17.63;4.10;;;;;;;;;;5062306;28;20041;-78
2022/12/29 12:09:47;;;;;;;13.82;3.30;;;;;;;;;;5064926;28;20102;-78
2022/12/29 12:12:23;;;;;;;12.45;3.70;;;;;;;;;;5066944;28;20051;-79
2022/12/29 12:14:56;;;;;;;15.18;3.88;;;;;;;;;;5063688;28;20098;-77
2022/12/29 12:17:27;;;;;;;17.58;4.35;;;;;;;;;;5064198;28;20044;-77
2022/12/29 12:20:11;;;;;;;20.80;4.55;;;;;;;;;;5063580;28;20037;-77
2022/12/29 12:23:09;;;;;;;20.63;4.15;;;;;;;;;;5064624;28;20041;-77
2022/12/29 12:25:39;;;;;;;13.05;3.63;;;;;;;;;;5023172;28;20049;-77
2022/12/29 12:28:19;;;;;;;11.30;3.28;;;;;;;;;;5061913;28;20045;-77
2022/12/29 12:30:48;;;;;;;15.25;3.00;;;;;;;;;;5060258;28;20032;-78
2022/12/29 12:33:18;;;;;;;21.25;3.63;;;;;;;;;;5063456;28;20407;-77
2022/12/29 12:35:50;;;;;;;11.43;2.80;;;;;;;;;;5066611;28;20037;-77
2022/12/29 12:38:24;;;;;;;16.38;2.80;;;;;;;;;;5058523;28;20059;-76
2022/12/29 12:41:01;;;;;;;12.15;2.97;;;;;;;;;;5068588;28;20049;-76
2022/12/29 12:43:37;;;;;;;12.38;3.20;;;;;;;;;;5063920;28;20075;-76
2022/12/29 12:46:33;;;;;;;14.95;3.47;;;;;;;;;;5059950;28;20395;-76
2022/12/29 12:49:09;;;;;;;15.13;3.00;;;;;;;;;;5049291;28;20044;-78
2022/12/29 12:51:54;;;;;;;12.68;3.17;;;;;;;;;;5064705;28;20044;-77
2022/12/29 12:54:23;;;;;;;10.18;2.70;;;;;;;;;;5063505;28;20381;-77
2022/12/29 12:56:52;;;;;;;8.07;2.97;;;;;;;;;;5066936;28;20048;-77
2022/12/29 12:59:32;;;;;;;10.88;3.35;;;;;;;;;;5065509;28;20503;-78
2022/12/29 13:02:16;;;;;;;13.15;4.05;;;;;;;;;;5062307;28;20396;-77
2022/12/29 13:04:42;;;;;;;;;;;;;;;;;;5068181;28;20130;-77
2022/12/29 13:07:21;;;;;;;11.95;3.35;;;;;;;;;;5064814;28;20007;-77
2022/12/29 13:09:53;;;;;;;13.40;3.15;;;;;;;;;;5052479;28;20049;-77
2022/12/29 13:12:32;;;;;;;10.27;3.42;;;;;;;;;;5067502;28;20052;-77
2022/12/29 13:15:08;;;;;;;11.48;3.00;;;;;;;;;;5060316;28;20044;-73
2022/12/29 13:17:40;;;;;;;14.23;3.50;;;;;;;;;;5064456;28;20094;-73
2022/12/29 13:20:22;;;;;;;17.13;3.83;;;;;;;;;;5067003;28;20451;-74
2022/12/29 13:22:55;;;;;;;10.52;3.63;;;;;;;;;;5064603;28;20403;-75
2022/12/29 13:25:28;;;;;;;12.05;3.92;;;;;;;;;;5056902;28;20045;-74
2022/12/29 13:28:04;;;;;;;13.02;3.28;;;;;;;;;;5063219;28;20055;-75
2022/12/29 13:30:34;;;;;;;10.73;3.13;;;;;;;;;;5061314;28;20040;-75
2022/12/29 13:33:39;;;;;;;14.57;3.63;;;;;;;;;;5065260;28;20131;-73
2022/12/29 13:36:10;;;;;;;9.30;3.20;;;;;;;;;;4997407;28;20749;-73
2022/12/29 13:38:42;;;;;;;8.45;3.10;;;;;;;;;;4995143;28;20065;-73
2022/12/29 13:41:09;;;;;;;15.00;4.13;;;;;;;;;;5033979;28;20614;-72
2022/12/29 13:43:37;;;;;;;11.70;3.10;;;;;;;;;;5067558;28;20048;-73
2022/12/29 13:46:22;;;;;;;15.00;3.92;;;;;;;;;;5064985;28;20400;-73
2022/12/29 13:49:00;;;;;;;14.30;3.65;;;;;;;;;;5066350;28;20037;-73
2022/12/29 13:51:27;;;;;;;14.65;3.83;;;;;;;;;;5065963;28;20152;-73
2022/12/29 13:54:08;;;;;;;15.40;3.63;;;;;;;;;;5066650;28;20041;-73
2022/12/29 13:56:52;;;;;;;15.98;3.53;;;;;;;;;;5068263;28;20044;-72
2022/12/29 13:59:21;;;;;;;17.13;5.03;;;;;;;;;;5067203;28;20040;-73
2022/12/29 14:01:56;;;;;;;17.05;4.30;;;;;;;;;;5060575;28;20044;-73
2022/12/29 14:04:26;;;;;;;14.70;3.45;;;;;;;;;;5067824;28;20102;-73
2022/12/29 14:07:04;;;;;;;18.52;4.10;;;;;;;;;;5068532;28;20577;-73
2022/12/29 14:09:36;;;;;;;12.38;3.30;;;;;;;;;;5066757;28;20040;-73
2022/12/29 14:12:18;;;;;;;13.75;4.03;;;;;;;;;;5069278;28;20481;-73
2022/12/29 14:14:44;;;;;;;19.90;4.18;;;;;;;;;;5061829;28;20041;-73
2022/12/29 14:17:12;;;;;;;15.48;3.92;;;;;;;;;;5063155;28;20052;-70
2022/12/29 14:19:43;;;;;;;17.77;4.00;;;;;;;;;;5068454;28;20104;-71
2022/12/29 14:22:10;;;;;;;10.70;3.30;;;;;;;;;;5067661;28;20052;-71
2022/12/29 14:24:36;;;;;;;14.13;3.92;;;;;;;;;;5066984;28;20036;-71
2022/12/29 14:27:14;;;;;;;13.10;3.58;;;;;;;;;;5068440;28;20048;-70
2022/12/29 14:29:40;;;;;;;13.52;3.92;;;;;;;;;;5069115;28;20055;-71
2022/12/29 14:32:25;;;;;;;14.93;3.65;;;;;;;;;;5065287;28;20037;-71
2022/12/29 14:34:52;;;;;;;11.07;4.18;;;;;;;;;;5063421;28;20374;-71
2022/12/29 14:37:44;;;;;;;16.63;4.18;;;;;;;;;;5065366;28;20118;-71
2022/12/29 14:40:13;;;;;;;12.95;3.33;;;;;;;;;;5061919;28;20151;-71
2022/12/29 14:42:40;;;;;;;9.98;3.25;;;;;;;;;;5067239;28;20581;-71
2022/12/29 14:45:15;;;;;;;12.90;4.05;;;;;;;;;;5063424;28;20044;-71
2022/12/29 14:47:45;;;;;;;21.05;4.63;;;;;;;;;;5067781;28;20072;-71
2022/12/29 14:50:11;;;;;;;20.52;4.13;;;;;;;;;;5065023;28;20047;-71
2022/12/29 14:52:57;;;;;;;15.10;4.40;;;;;;;;;;5069796;28;20033;-70
2022/12/29 14:55:39;;;;;;;21.40;4.47;;;;;;;;;;5067281;28;20101;-71
2022/12/29 14:58:06;;;;;;;13.02;4.03;;;;;;;;;;5067942;28;20036;-71
2022/12/29 15:00:36;;;;;;;17.15;4.72;;;;;;;;;;5065412;28;20048;-70
2022/12/29 15:03:02;;;;;;;21.40;4.60;;;;;;;;;;5065061;28;20377;-71
2022/12/29 15:05:37;;;;;;;18.90;4.30;;;;;;;;;;5069866;28;20044;-70
2022/12/29 15:08:04;;;;;;;15.23;4.28;;;;;;;;;;5066637;28;20774;-71
2022/12/29 15:10:35;;;;;;;23.10;4.72;;;;;;;;;;5060144;28;20053;-72
2022/12/29 15:13:04;;;;;;;15.15;3.67;;;;;;;;;;5070165;28;20052;-72
2022/12/29 15:15:36;;;;;;;19.05;5.57;;;;;;;;;;5064009;28;21003;-73
2022/12/29 15:18:16;;;;;;;14.40;4.05;;;;;;;;;;5064360;28;20090;-72
2022/12/29 15:20:42;;;;;;;18.88;4.57;;;;;;;;;;5066554;28;20048;-72
2022/12/29 15:23:19;;;;;;;14.93;3.72;;;;;;;;;;5063381;28;20039;-74
2022/12/29 15:25:51;;;;;;;17.13;4.25;;;;;;;;;;5068146;28;20044;-73